首页
METAR-TAF:

METAR-TAF

机场 :

Chautauqua County/Jamestown Airport

Jamestown, 紐約州, 美国

纬度: 42-09N, 经度: 079-16W, 海拔: 525米

当前天气观测

该预报发布于15分钟前的22:56 UTC
风速7节,风向北转东北
温度 6°C
湿度 93%
气压 1006 hPa
能見度: 14.5公里
阴天层高于900英尺
小雨

METAR: KJHW 292256Z AUTO 03007KT 9SM -RA OVC009 06/05 A2971 RMK AO2 RAB13 SLP074 P0001 T00560050

时间: 19:11 (23:11 UTC)

预报

该预报发布于1小时和31分钟前的21:40 UTC
预报有效从29日的 22点(UTC)到 30日的 18点(UTC)
风速8节,风向北转东北
能見度: 10公里
阴天层高于700英尺
附近有阵雨
从 29日的 2300点(UTC)
风速10节,风向北转东北
能見度: 8.0公里
阴天层高于300英尺
小雨, 轻雾
从 30日的 0600点(UTC)
风速10节,风向北转东北
能見度: 6.4公里
阴天层高于700英尺
小雪, 雨
从 30日的 0900点(UTC)
风速10节,风向北转东北
能見度: 10公里
阴天层高于700英尺
附近有阵雨
从 30日的 1600点(UTC)
风速7节,风向
能見度: 10公里
阴天层高于1200英尺
附近有阵雨

TAF: KJHW 292140Z 2922/3018 03008KT P6SM VCSH OVC007 FM292300 02010KT 5SM -RA BR OVC003 FM300600 03010KT 4SM -SNRA OVC007 FM300900 03010KT P6SM VCSH OVC007 FM301600 01007KT P6SM VCSH OVC012

超过4000个机场的气象观测和天气预报(METAR&TAF报告)。

可查询的气象台以黄色和红色小点在地图上表示。

将鼠标移到小点上方,可查看气象台名称。

然后点击查看天气观测和预报。

如需切换地图:点击带黑十字的绿色按钮放大地图;点击带横线的绿色按钮缩小地图;或者点击绿色箭头查看邻近地区的地图。


METAR-TAF: